DAL7931 KFLL-KATL
Flight info
| Callsign | DAL7931 |
|---|---|
| Flight time | 1h 25m |
| Altitude | 37000 |
| Route | FRSBE2 STYMY Q77 MJAMS/N0443F370 Q77 SHRKS/N0447F380 LAIRI LARZZ JJEDI4 |
| Aircraft | A320/M-SDE3FGHIRWY/LB1 |
Departure
| Time | 2026-05-05 00:19 |
|---|---|
| Airport | Fort Lauderdale Hollywood International Airport (KFLL) |
Arrival
| Time | 2026-05-05 01:45 |
|---|---|
| Airport | Hartsfield Jackson Atlanta International Airport (KATL) |
| Time | Latitude | Longitude | Altitude | Speed | Heading |
|---|---|---|---|---|---|
| 2026-05-04 23:42 | 26.07343 | -80.14259 | 16 ft | 0 kts | 270° |
| 2026-05-04 23:51 | 26.07343 | -80.14255 | 16 ft | 2 kts | 270° |
| 2026-05-04 23:51 | 26.07343 | -80.14237 | 16 ft | 2 kts | 270° |
| 2026-05-04 23:52 | 26.07343 | -80.14219 | 16 ft | 2 kts | 270° |
| 2026-05-04 23:52 | 26.07338 | -80.14202 | 16 ft | 2 kts | 338° |
| 2026-05-04 23:52 | 26.07336 | -80.14201 | 16 ft | 0 kts | 343° |
| 2026-05-05 00:09 | 26.07342 | -80.14202 | 16 ft | 1 kts | 351° |
| 2026-05-05 00:10 | 26.07362 | -80.14202 | 16 ft | 5 kts | 5° |
| 2026-05-05 00:10 | 26.07389 | -80.14198 | 16 ft | 3 kts | 7° |
| 2026-05-05 00:10 | 26.07409 | -80.14196 | 16 ft | 2 kts | 4° |
| 2026-05-05 00:10 | 26.07421 | -80.14195 | 16 ft | 1 kts | 4° |
| 2026-05-05 00:11 | 26.07446 | -80.14198 | 16 ft | 8 kts | 349° |
| 2026-05-05 00:11 | 26.07488 | -80.14256 | 16 ft | 11 kts | 283° |
| 2026-05-05 00:11 | 26.07491 | -80.14356 | 16 ft | 15 kts | 268° |
| 2026-05-05 00:11 | 26.07488 | -80.14479 | 16 ft | 17 kts | 268° |
| 2026-05-05 00:12 | 26.07484 | -80.14615 | 16 ft | 18 kts | 269° |
| 2026-05-05 00:12 | 26.07476 | -80.14761 | 16 ft | 19 kts | 272° |
| 2026-05-05 00:12 | 26.07487 | -80.14906 | 16 ft | 18 kts | 270° |
| 2026-05-05 00:12 | 26.07487 | -80.15043 | 16 ft | 18 kts | 269° |
| 2026-05-05 00:13 | 26.07489 | -80.15195 | 16 ft | 21 kts | 270° |
| 2026-05-05 00:13 | 26.07487 | -80.15362 | 16 ft | 21 kts | 269° |
| 2026-05-05 00:13 | 26.07489 | -80.15520 | 16 ft | 20 kts | 271° |
| 2026-05-05 00:13 | 26.07490 | -80.15688 | 16 ft | 23 kts | 270° |
| 2026-05-05 00:14 | 26.07492 | -80.15856 | 16 ft | 21 kts | 271° |
| 2026-05-05 00:14 | 26.07494 | -80.16010 | 16 ft | 19 kts | 270° |
| 2026-05-05 00:14 | 26.07495 | -80.16153 | 16 ft | 18 kts | 271° |
| 2026-05-05 00:14 | 26.07496 | -80.16285 | 16 ft | 17 kts | 270° |
| 2026-05-05 00:15 | 26.07497 | -80.16408 | 16 ft | 15 kts | 270° |
| 2026-05-05 00:15 | 26.07497 | -80.16521 | 16 ft | 14 kts | 270° |
| 2026-05-05 00:15 | 26.07508 | -80.16622 | 18 ft | 12 kts | 302° |
| 2026-05-05 00:15 | 26.07580 | -80.16643 | 18 ft | 6 kts | 0° |
| 2026-05-05 00:16 | 26.07582 | -80.16643 | 18 ft | 0 kts | 0° |
| 2026-05-05 00:18 | 26.07646 | -80.16643 | 17 ft | 12 kts | 360° |
| 2026-05-05 00:18 | 26.07693 | -80.16612 | 20 ft | 0 kts | 86° |
| 2026-05-05 00:18 | 26.07693 | -80.16611 | 20 ft | 3 kts | 86° |
| 2026-05-05 00:18 | 26.07692 | -80.16315 | 21 ft | 74 kts | 90° |
| 2026-05-05 00:19 | 26.07687 | -80.15500 | 15 ft | 134 kts | 90° |
| 2026-05-05 00:19 | 26.07683 | -80.14325 | 257 ft | 160 kts | 90° |
| 2026-05-05 00:19 | 26.07703 | -80.13071 | 948 ft | 161 kts | 85° |
| 2026-05-05 00:19 | 26.07742 | -80.11834 | 1706 ft | 160 kts | 87° |
| 2026-05-05 00:20 | 26.07785 | -80.10543 | 2157 ft | 177 kts | 86° |
| 2026-05-05 00:20 | 26.08102 | -80.09130 | 2471 ft | 202 kts | 63° |
| 2026-05-05 00:20 | 26.08975 | -80.07792 | 2900 ft | 228 kts | 47° |
| 2026-05-05 00:20 | 26.10318 | -80.06680 | 3407 ft | 253 kts | 30° |
| 2026-05-05 00:21 | 26.11999 | -80.05935 | 3878 ft | 265 kts | 20° |
| 2026-05-05 00:21 | 26.13752 | -80.05290 | 3983 ft | 265 kts | 15° |
| 2026-05-05 00:21 | 26.15584 | -80.05070 | 4025 ft | 267 kts | 1° |
| 2026-05-05 00:21 | 26.17425 | -80.05362 | 4025 ft | 269 kts | 346° |
| 2026-05-05 00:22 | 26.19202 | -80.06038 | 4028 ft | 270 kts | 342° |
| 2026-05-05 00:22 | 26.20884 | -80.06976 | 4028 ft | 272 kts | 326° |
| 2026-05-05 00:22 | 26.22305 | -80.08368 | 4026 ft | 275 kts | 312° |
| 2026-05-05 00:22 | 26.23384 | -80.10139 | 4025 ft | 279 kts | 297° |
| 2026-05-05 00:23 | 26.24129 | -80.12135 | 4028 ft | 279 kts | 292° |
| 2026-05-05 00:23 | 26.24844 | -80.14150 | 4027 ft | 279 kts | 292° |
| 2026-05-05 00:23 | 26.25622 | -80.16141 | 4026 ft | 282 kts | 301° |
| 2026-05-05 00:23 | 26.26658 | -80.17992 | 4028 ft | 279 kts | 303° |
| 2026-05-05 00:24 | 26.27700 | -80.19824 | 4159 ft | 284 kts | 303° |
| 2026-05-05 00:24 | 26.28760 | -80.21688 | 5130 ft | 283 kts | 302° |
| 2026-05-05 00:24 | 26.29776 | -80.23474 | 6557 ft | 262 kts | 300° |
| 2026-05-05 00:24 | 26.30757 | -80.25199 | 7442 ft | 270 kts | 300° |
| 2026-05-05 00:25 | 26.31776 | -80.26997 | 8179 ft | 278 kts | 300° |
| 2026-05-05 00:25 | 26.32814 | -80.28829 | 9040 ft | 281 kts | 300° |
| 2026-05-05 00:25 | 26.33865 | -80.30681 | 9961 ft | 283 kts | 299° |
| 2026-05-05 00:25 | 26.34939 | -80.32579 | 10480 ft | 300 kts | 299° |
| 2026-05-05 00:26 | 26.36093 | -80.34630 | 10748 ft | 324 kts | 299° |
| 2026-05-05 00:26 | 26.37330 | -80.36824 | 11087 ft | 342 kts | 300° |
| 2026-05-05 00:26 | 26.38614 | -80.39091 | 11752 ft | 348 kts | 300° |
| 2026-05-05 00:26 | 26.39917 | -80.41387 | 12503 ft | 352 kts | 300° |
| 2026-05-05 00:27 | 26.41232 | -80.43702 | 13256 ft | 355 kts | 300° |
| 2026-05-05 00:27 | 26.42556 | -80.46039 | 13970 ft | 358 kts | 300° |
| 2026-05-05 00:27 | 26.43892 | -80.48396 | 14629 ft | 360 kts | 300° |
| 2026-05-05 00:27 | 26.45232 | -80.50767 | 15308 ft | 362 kts | 300° |
| 2026-05-05 00:28 | 26.46600 | -80.53131 | 15985 ft | 365 kts | 303° |
| 2026-05-05 00:28 | 26.48327 | -80.55227 | 16665 ft | 371 kts | 315° |
| 2026-05-05 00:28 | 26.50479 | -80.56859 | 17316 ft | 379 kts | 328° |
| 2026-05-05 00:28 | 26.52970 | -80.57922 | 17936 ft | 389 kts | 339° |
| 2026-05-05 00:29 | 26.55583 | -80.58736 | 18516 ft | 391 kts | 339° |
| 2026-05-05 00:29 | 26.58215 | -80.59561 | 19064 ft | 394 kts | 339° |
| 2026-05-05 00:29 | 26.60859 | -80.60394 | 19574 ft | 396 kts | 339° |
| 2026-05-05 00:29 | 26.63522 | -80.61239 | 20094 ft | 399 kts | 338° |
| 2026-05-05 00:30 | 26.66198 | -80.62092 | 20610 ft | 401 kts | 338° |
| 2026-05-05 00:30 | 26.68890 | -80.62951 | 21116 ft | 404 kts | 338° |
| 2026-05-05 00:30 | 26.71564 | -80.63807 | 21599 ft | 406 kts | 338° |
| 2026-05-05 00:30 | 26.74288 | -80.64678 | 22083 ft | 409 kts | 338° |
| 2026-05-05 00:31 | 26.77033 | -80.65554 | 22557 ft | 411 kts | 338° |
| 2026-05-05 00:31 | 26.79793 | -80.66429 | 23014 ft | 414 kts | 338° |
| 2026-05-05 00:31 | 26.82570 | -80.67313 | 23470 ft | 416 kts | 338° |
| 2026-05-05 00:31 | 26.85365 | -80.68205 | 23857 ft | 418 kts | 338° |
| 2026-05-05 00:32 | 26.88172 | -80.69100 | 24252 ft | 421 kts | 338° |
| 2026-05-05 00:32 | 26.90989 | -80.69998 | 24619 ft | 422 kts | 338° |
| 2026-05-05 00:32 | 26.93809 | -80.70954 | 24975 ft | 423 kts | 336° |
| 2026-05-05 00:32 | 26.96601 | -80.71986 | 25349 ft | 424 kts | 335° |
| 2026-05-05 00:33 | 26.99394 | -80.73070 | 25702 ft | 425 kts | 335° |
| 2026-05-05 00:33 | 27.02187 | -80.74168 | 26065 ft | 426 kts | 334° |
| 2026-05-05 00:33 | 27.04990 | -80.75269 | 26409 ft | 428 kts | 335° |
| 2026-05-05 00:33 | 27.07813 | -80.76364 | 26730 ft | 430 kts | 335° |
| 2026-05-05 00:34 | 27.10647 | -80.77453 | 27076 ft | 432 kts | 335° |
| 2026-05-05 00:34 | 27.13494 | -80.78534 | 27396 ft | 433 kts | 335° |
| 2026-05-05 00:34 | 27.16363 | -80.79612 | 27705 ft | 435 kts | 335° |
| 2026-05-05 00:34 | 27.19237 | -80.80689 | 28025 ft | 437 kts | 335° |
| 2026-05-05 00:35 | 27.21951 | -80.81711 | 28301 ft | 438 kts | 335° |
| 2026-05-05 00:35 | 27.24830 | -80.82795 | 28572 ft | 440 kts | 335° |
| 2026-05-05 00:35 | 27.27733 | -80.83891 | 28840 ft | 441 kts | 335° |
| 2026-05-05 00:35 | 27.30648 | -80.84996 | 29099 ft | 442 kts | 335° |
| 2026-05-05 00:36 | 27.33564 | -80.86116 | 29350 ft | 443 kts | 334° |
| 2026-05-05 00:36 | 27.36454 | -80.87279 | 29703 ft | 441 kts | 333° |
| 2026-05-05 00:36 | 27.39330 | -80.88472 | 30057 ft | 439 kts | 333° |
| 2026-05-05 00:36 | 27.42188 | -80.89667 | 30364 ft | 438 kts | 333° |
| 2026-05-05 00:37 | 27.45039 | -80.90867 | 30647 ft | 437 kts | 333° |
| 2026-05-05 00:37 | 27.47880 | -80.92054 | 31009 ft | 433 kts | 333° |
| 2026-05-05 00:37 | 27.50698 | -80.93220 | 31379 ft | 431 kts | 333° |
| 2026-05-05 00:37 | 27.53506 | -80.94374 | 31706 ft | 429 kts | 334° |
| 2026-05-05 00:38 | 27.56304 | -80.95525 | 32024 ft | 427 kts | 334° |
| 2026-05-05 00:38 | 27.59092 | -80.96674 | 32338 ft | 426 kts | 334° |
| 2026-05-05 00:38 | 27.61873 | -80.97822 | 32645 ft | 425 kts | 334° |
| 2026-05-05 00:38 | 27.64644 | -80.98966 | 32949 ft | 424 kts | 334° |
| 2026-05-05 00:39 | 27.67410 | -81.00109 | 33255 ft | 423 kts | 334° |
| 2026-05-05 00:39 | 27.70171 | -81.01245 | 33560 ft | 422 kts | 334° |
| 2026-05-05 00:39 | 27.72924 | -81.02376 | 33870 ft | 421 kts | 334° |
| 2026-05-05 00:39 | 27.75671 | -81.03512 | 34155 ft | 420 kts | 334° |
| 2026-05-05 00:40 | 27.78409 | -81.04649 | 34451 ft | 419 kts | 333° |
| 2026-05-05 00:40 | 27.81142 | -81.05787 | 34697 ft | 419 kts | 333° |
| 2026-05-05 00:40 | 27.83878 | -81.06926 | 34934 ft | 418 kts | 333° |
| 2026-05-05 00:40 | 27.86604 | -81.08060 | 35167 ft | 418 kts | 333° |
| 2026-05-05 00:41 | 27.89333 | -81.09198 | 35402 ft | 417 kts | 333° |
| 2026-05-05 00:41 | 27.92055 | -81.10329 | 35635 ft | 417 kts | 333° |
| 2026-05-05 00:41 | 27.94776 | -81.11457 | 35853 ft | 416 kts | 333° |
| 2026-05-05 00:41 | 27.97498 | -81.12581 | 36063 ft | 416 kts | 333° |
| 2026-05-05 00:42 | 28.00209 | -81.13704 | 36263 ft | 415 kts | 333° |
| 2026-05-05 00:42 | 28.02925 | -81.14829 | 36476 ft | 415 kts | 333° |
| 2026-05-05 00:42 | 28.05606 | -81.16008 | 36671 ft | 412 kts | 330° |
| 2026-05-05 00:42 | 28.08232 | -81.17295 | 36865 ft | 410 kts | 328° |
| 2026-05-05 00:43 | 28.10821 | -81.18649 | 37035 ft | 411 kts | 328° |
| 2026-05-05 00:43 | 28.16005 | -81.21448 | 37074 ft | 414 kts | 328° |
| 2026-05-05 00:44 | 28.21232 | -81.24218 | 37073 ft | 415 kts | 328° |
| 2026-05-05 00:44 | 28.26489 | -81.26925 | 37078 ft | 415 kts | 329° |
| 2026-05-05 00:45 | 28.31741 | -81.29623 | 37070 ft | 412 kts | 328° |
| 2026-05-05 00:45 | 28.36952 | -81.32302 | 37079 ft | 411 kts | 328° |
| 2026-05-05 00:46 | 28.42163 | -81.34964 | 37102 ft | 411 kts | 328° |
| 2026-05-05 00:46 | 28.47389 | -81.37628 | 37091 ft | 412 kts | 328° |
| 2026-05-05 00:47 | 28.52613 | -81.40296 | 37086 ft | 412 kts | 328° |
| 2026-05-05 00:47 | 28.57843 | -81.42973 | 37085 ft | 412 kts | 328° |
| 2026-05-05 00:48 | 28.63071 | -81.45661 | 37086 ft | 413 kts | 328° |
| 2026-05-05 00:48 | 28.68300 | -81.48352 | 37087 ft | 413 kts | 328° |
| 2026-05-05 00:49 | 28.73299 | -81.50922 | 37082 ft | 412 kts | 328° |
| 2026-05-05 00:49 | 28.78418 | -81.53560 | 37077 ft | 413 kts | 328° |
| 2026-05-05 00:50 | 28.83660 | -81.56257 | 37074 ft | 414 kts | 328° |
| 2026-05-05 00:50 | 28.88916 | -81.58956 | 37075 ft | 414 kts | 328° |
| 2026-05-05 00:51 | 28.94438 | -81.61046 | 37078 ft | 430 kts | 344° |
| 2026-05-05 00:51 | 29.00451 | -81.61643 | 37107 ft | 435 kts | 347° |
| 2026-05-05 00:52 | 29.06484 | -81.62185 | 37100 ft | 435 kts | 347° |
| 2026-05-05 00:52 | 29.12526 | -81.62730 | 37090 ft | 436 kts | 347° |
| 2026-05-05 00:53 | 29.18573 | -81.63279 | 37079 ft | 436 kts | 347° |
| 2026-05-05 00:53 | 29.24617 | -81.63835 | 37086 ft | 436 kts | 347° |
| 2026-05-05 00:54 | 29.30659 | -81.64399 | 37110 ft | 436 kts | 347° |
| 2026-05-05 00:54 | 29.36709 | -81.64963 | 37095 ft | 437 kts | 347° |
| 2026-05-05 00:55 | 29.42774 | -81.65513 | 37086 ft | 437 kts | 347° |
| 2026-05-05 00:55 | 29.48800 | -81.66059 | 37070 ft | 432 kts | 347° |
| 2026-05-05 00:56 | 29.54790 | -81.66611 | 37071 ft | 431 kts | 347° |
| 2026-05-05 00:56 | 29.60770 | -81.67167 | 37064 ft | 431 kts | 347° |
| 2026-05-05 00:57 | 29.65733 | -81.67631 | 37076 ft | 431 kts | 347° |
| 2026-05-05 00:57 | 29.71709 | -81.68185 | 37077 ft | 431 kts | 347° |
| 2026-05-05 00:58 | 29.77689 | -81.68737 | 37073 ft | 431 kts | 347° |
| 2026-05-05 00:58 | 29.83668 | -81.69286 | 37080 ft | 431 kts | 347° |
| 2026-05-05 00:59 | 29.89654 | -81.69839 | 37107 ft | 431 kts | 347° |
| 2026-05-05 00:59 | 29.95638 | -81.70393 | 37105 ft | 431 kts | 347° |
| 2026-05-05 01:00 | 30.01621 | -81.70946 | 37107 ft | 431 kts | 347° |
| 2026-05-05 01:00 | 30.07598 | -81.71503 | 37110 ft | 431 kts | 347° |
| 2026-05-05 01:01 | 30.13573 | -81.72066 | 37117 ft | 430 kts | 347° |
| 2026-05-05 01:01 | 30.19519 | -81.72620 | 37110 ft | 428 kts | 347° |
| 2026-05-05 01:02 | 30.25451 | -81.73173 | 37125 ft | 428 kts | 347° |
| 2026-05-05 01:02 | 30.31388 | -81.73739 | 37124 ft | 428 kts | 347° |
| 2026-05-05 01:03 | 30.37324 | -81.74299 | 37115 ft | 428 kts | 347° |
| 2026-05-05 01:03 | 30.43259 | -81.74852 | 37099 ft | 428 kts | 347° |
| 2026-05-05 01:04 | 30.49194 | -81.75407 | 37098 ft | 428 kts | 347° |
| 2026-05-05 01:04 | 30.58106 | -81.76238 | 37099 ft | 428 kts | 347° |
| 2026-05-05 01:05 | 30.63812 | -81.77598 | 37105 ft | 411 kts | 330° |
| 2026-05-05 01:05 | 30.68900 | -81.80461 | 37090 ft | 406 kts | 326° |
| 2026-05-05 01:06 | 30.73957 | -81.83379 | 37108 ft | 406 kts | 327° |
| 2026-05-05 01:06 | 30.79015 | -81.86291 | 37093 ft | 405 kts | 326° |
| 2026-05-05 01:07 | 30.84064 | -81.89212 | 37084 ft | 405 kts | 326° |
| 2026-05-05 01:07 | 30.89107 | -81.92142 | 37081 ft | 405 kts | 326° |
| 2026-05-05 01:08 | 30.94154 | -81.95071 | 37079 ft | 405 kts | 326° |
| 2026-05-05 01:08 | 30.99196 | -81.98002 | 37075 ft | 405 kts | 326° |
| 2026-05-05 01:09 | 31.04230 | -82.00935 | 37074 ft | 404 kts | 326° |
| 2026-05-05 01:09 | 31.09259 | -82.03864 | 37065 ft | 404 kts | 326° |
| 2026-05-05 01:10 | 31.14284 | -82.06802 | 37069 ft | 404 kts | 326° |
| 2026-05-05 01:10 | 31.16800 | -82.08274 | 36847 ft | 406 kts | 326° |
| 2026-05-05 01:10 | 31.19319 | -82.09747 | 36415 ft | 404 kts | 326° |
| 2026-05-05 01:11 | 31.21830 | -82.11217 | 35996 ft | 404 kts | 326° |
| 2026-05-05 01:11 | 31.24345 | -82.12692 | 35587 ft | 404 kts | 326° |
| 2026-05-05 01:11 | 31.26863 | -82.14166 | 35193 ft | 405 kts | 326° |
| 2026-05-05 01:11 | 31.29380 | -82.15639 | 35070 ft | 405 kts | 326° |
| 2026-05-05 01:12 | 31.34432 | -82.18602 | 35078 ft | 407 kts | 326° |
| 2026-05-05 01:12 | 31.39500 | -82.21573 | 35077 ft | 407 kts | 326° |
| 2026-05-05 01:13 | 31.44567 | -82.24549 | 35074 ft | 407 kts | 326° |
| 2026-05-05 01:13 | 31.49626 | -82.27532 | 35070 ft | 407 kts | 326° |
| 2026-05-05 01:14 | 31.54686 | -82.30518 | 35062 ft | 407 kts | 326° |
| 2026-05-05 01:14 | 31.59751 | -82.33505 | 35075 ft | 408 kts | 327° |
| 2026-05-05 01:15 | 31.64822 | -82.36495 | 35063 ft | 408 kts | 326° |
| 2026-05-05 01:15 | 31.69891 | -82.39495 | 35062 ft | 408 kts | 326° |
| 2026-05-05 01:16 | 31.74958 | -82.42497 | 35063 ft | 407 kts | 326° |
| 2026-05-05 01:16 | 31.80003 | -82.45491 | 35069 ft | 406 kts | 326° |
| 2026-05-05 01:17 | 31.85039 | -82.48477 | 35074 ft | 405 kts | 326° |
| 2026-05-05 01:17 | 31.90086 | -82.51478 | 35074 ft | 407 kts | 327° |
| 2026-05-05 01:18 | 31.95135 | -82.54490 | 35063 ft | 405 kts | 324° |
| 2026-05-05 01:18 | 31.99539 | -82.58467 | 35059 ft | 398 kts | 314° |
| 2026-05-05 01:19 | 32.03725 | -82.62743 | 35055 ft | 399 kts | 314° |
| 2026-05-05 01:19 | 32.07928 | -82.67012 | 35057 ft | 399 kts | 314° |
| 2026-05-05 01:20 | 32.12131 | -82.71290 | 35060 ft | 399 kts | 314° |
| 2026-05-05 01:20 | 32.16329 | -82.75578 | 35076 ft | 400 kts | 314° |
| 2026-05-05 01:21 | 32.20535 | -82.79897 | 35062 ft | 400 kts | 315° |
| 2026-05-05 01:21 | 32.24732 | -82.84200 | 35067 ft | 400 kts | 315° |
| 2026-05-05 01:22 | 32.28933 | -82.88501 | 35066 ft | 399 kts | 315° |
| 2026-05-05 01:22 | 32.33121 | -82.92798 | 35081 ft | 398 kts | 315° |
| 2026-05-05 01:23 | 32.37297 | -82.97098 | 35063 ft | 398 kts | 314° |
| 2026-05-05 01:23 | 32.41472 | -83.01400 | 35062 ft | 398 kts | 315° |
| 2026-05-05 01:24 | 32.43562 | -83.03550 | 34661 ft | 400 kts | 315° |
| 2026-05-05 01:24 | 32.45658 | -83.05710 | 34073 ft | 399 kts | 315° |
| 2026-05-05 01:24 | 32.47748 | -83.07862 | 33394 ft | 397 kts | 315° |
| 2026-05-05 01:24 | 32.49824 | -83.10000 | 32732 ft | 395 kts | 315° |
| 2026-05-05 01:25 | 32.51897 | -83.12136 | 32080 ft | 394 kts | 315° |
| 2026-05-05 01:25 | 32.53960 | -83.14264 | 31446 ft | 393 kts | 315° |
| 2026-05-05 01:25 | 32.56016 | -83.16389 | 30833 ft | 392 kts | 315° |
| 2026-05-05 01:25 | 32.58070 | -83.18511 | 30225 ft | 391 kts | 315° |
| 2026-05-05 01:26 | 32.60121 | -83.20632 | 29456 ft | 392 kts | 315° |
| 2026-05-05 01:26 | 32.62180 | -83.22766 | 28621 ft | 394 kts | 315° |
| 2026-05-05 01:26 | 32.64253 | -83.24914 | 27824 ft | 396 kts | 315° |
| 2026-05-05 01:26 | 32.66326 | -83.27069 | 27040 ft | 397 kts | 315° |
| 2026-05-05 01:27 | 32.68403 | -83.29228 | 26281 ft | 398 kts | 315° |
| 2026-05-05 01:27 | 32.70485 | -83.31395 | 25543 ft | 398 kts | 315° |
| 2026-05-05 01:27 | 32.72571 | -83.33566 | 24831 ft | 398 kts | 316° |
| 2026-05-05 01:27 | 32.74654 | -83.35738 | 24125 ft | 399 kts | 316° |
| 2026-05-05 01:28 | 32.76736 | -83.37909 | 23401 ft | 399 kts | 316° |
| 2026-05-05 01:28 | 32.78824 | -83.40088 | 22598 ft | 399 kts | 316° |
| 2026-05-05 01:28 | 32.80911 | -83.42267 | 21809 ft | 400 kts | 316° |
| 2026-05-05 01:28 | 32.83004 | -83.44450 | 21045 ft | 401 kts | 316° |
| 2026-05-05 01:29 | 32.85100 | -83.46637 | 20294 ft | 401 kts | 316° |
| 2026-05-05 01:29 | 32.87196 | -83.48828 | 19563 ft | 402 kts | 316° |
| 2026-05-05 01:29 | 32.89298 | -83.51027 | 18852 ft | 403 kts | 316° |
| 2026-05-05 01:29 | 32.91400 | -83.53230 | 18127 ft | 403 kts | 316° |
| 2026-05-05 01:30 | 32.93508 | -83.55442 | 17333 ft | 404 kts | 316° |
| 2026-05-05 01:30 | 32.95618 | -83.57648 | 16573 ft | 404 kts | 316° |
| 2026-05-05 01:30 | 32.97725 | -83.59853 | 15818 ft | 404 kts | 316° |
| 2026-05-05 01:30 | 32.99838 | -83.62066 | 15092 ft | 404 kts | 317° |
| 2026-05-05 01:31 | 33.01948 | -83.64277 | 14375 ft | 404 kts | 317° |
| 2026-05-05 01:31 | 33.04049 | -83.66484 | 13655 ft | 403 kts | 317° |
| 2026-05-05 01:31 | 33.06154 | -83.68694 | 12870 ft | 402 kts | 317° |
| 2026-05-05 01:31 | 33.08247 | -83.70889 | 12148 ft | 399 kts | 317° |
| 2026-05-05 01:32 | 33.10315 | -83.73057 | 11493 ft | 394 kts | 317° |
| 2026-05-05 01:32 | 33.12345 | -83.75193 | 11124 ft | 382 kts | 317° |
| 2026-05-05 01:32 | 33.14292 | -83.77240 | 10997 ft | 363 kts | 317° |
| 2026-05-05 01:32 | 33.16097 | -83.79136 | 10982 ft | 330 kts | 317° |
| 2026-05-05 01:33 | 33.17757 | -83.80887 | 10733 ft | 308 kts | 316° |
| 2026-05-05 01:33 | 33.19306 | -83.82533 | 10495 ft | 289 kts | 315° |
| 2026-05-05 01:33 | 33.20737 | -83.84155 | 10261 ft | 280 kts | 313° |
| 2026-05-05 01:33 | 33.22106 | -83.85787 | 10041 ft | 276 kts | 312° |
| 2026-05-05 01:34 | 33.23448 | -83.87419 | 9695 ft | 275 kts | 312° |
| 2026-05-05 01:34 | 33.24782 | -83.89045 | 9324 ft | 274 kts | 312° |
| 2026-05-05 01:34 | 33.26117 | -83.90663 | 8961 ft | 273 kts | 312° |
| 2026-05-05 01:34 | 33.27453 | -83.92267 | 8574 ft | 272 kts | 314° |
| 2026-05-05 01:35 | 33.28950 | -83.93618 | 8341 ft | 272 kts | 323° |
| 2026-05-05 01:35 | 33.30512 | -83.94885 | 7961 ft | 271 kts | 323° |
| 2026-05-05 01:35 | 33.32066 | -83.96147 | 7600 ft | 269 kts | 323° |
| 2026-05-05 01:35 | 33.33613 | -83.97402 | 7240 ft | 268 kts | 323° |
| 2026-05-05 01:36 | 33.35154 | -83.98649 | 6880 ft | 267 kts | 323° |
| 2026-05-05 01:36 | 33.36687 | -83.99891 | 6525 ft | 266 kts | 323° |
| 2026-05-05 01:36 | 33.38215 | -84.01129 | 6146 ft | 265 kts | 323° |
| 2026-05-05 01:36 | 33.39246 | -84.01964 | 5894 ft | 264 kts | 323° |
| 2026-05-05 01:37 | 33.40766 | -84.03196 | 5515 ft | 264 kts | 323° |
| 2026-05-05 01:37 | 33.42280 | -84.04428 | 5146 ft | 262 kts | 323° |
| 2026-05-05 01:37 | 33.43779 | -84.05647 | 5030 ft | 260 kts | 323° |
| 2026-05-05 01:37 | 33.45283 | -84.06868 | 5041 ft | 262 kts | 323° |
| 2026-05-05 01:38 | 33.46796 | -84.08094 | 5042 ft | 263 kts | 323° |
| 2026-05-05 01:38 | 33.48287 | -84.09304 | 5041 ft | 263 kts | 323° |
| 2026-05-05 01:38 | 33.49798 | -84.10535 | 5042 ft | 263 kts | 323° |
| 2026-05-05 01:38 | 33.51308 | -84.11766 | 5041 ft | 263 kts | 323° |
| 2026-05-05 01:39 | 33.52821 | -84.12995 | 5039 ft | 263 kts | 323° |
| 2026-05-05 01:39 | 33.54334 | -84.14225 | 5044 ft | 263 kts | 323° |
| 2026-05-05 01:39 | 33.55869 | -84.15471 | 5031 ft | 264 kts | 323° |
| 2026-05-05 01:39 | 33.57390 | -84.16706 | 4867 ft | 263 kts | 323° |
| 2026-05-05 01:40 | 33.58907 | -84.17938 | 4738 ft | 263 kts | 323° |
| 2026-05-05 01:40 | 33.60417 | -84.19168 | 4613 ft | 262 kts | 323° |
| 2026-05-05 01:40 | 33.61804 | -84.20543 | 4360 ft | 254 kts | 308° |
| 2026-05-05 01:40 | 33.62725 | -84.22279 | 4116 ft | 242 kts | 289° |
| 2026-05-05 01:41 | 33.63142 | -84.24191 | 3838 ft | 232 kts | 271° |
| 2026-05-05 01:41 | 33.63170 | -84.26067 | 3554 ft | 219 kts | 266° |
| 2026-05-05 01:41 | 33.63174 | -84.27856 | 3280 ft | 209 kts | 266° |
| 2026-05-05 01:41 | 33.63176 | -84.29560 | 3018 ft | 198 kts | 266° |
| 2026-05-05 01:42 | 33.63179 | -84.31155 | 2795 ft | 183 kts | 266° |
| 2026-05-05 01:42 | 33.63180 | -84.32609 | 2534 ft | 171 kts | 265° |
| 2026-05-05 01:42 | 33.63182 | -84.33987 | 2338 ft | 154 kts | 264° |
| 2026-05-05 01:42 | 33.63183 | -84.35221 | 2129 ft | 143 kts | 264° |
| 2026-05-05 01:43 | 33.63182 | -84.36392 | 1933 ft | 139 kts | 264° |
| 2026-05-05 01:43 | 33.63182 | -84.37547 | 1757 ft | 138 kts | 265° |
| 2026-05-05 01:43 | 33.63182 | -84.38704 | 1555 ft | 140 kts | 267° |
| 2026-05-05 01:43 | 33.63183 | -84.39876 | 1374 ft | 141 kts | 269° |
| 2026-05-05 01:44 | 33.63191 | -84.41050 | 1173 ft | 141 kts | 267° |
| 2026-05-05 01:44 | 33.63187 | -84.42212 | 1054 ft | 138 kts | 268° |
| 2026-05-05 01:44 | 33.63181 | -84.43224 | 1038 ft | 103 kts | 270° |
| 2026-05-05 01:44 | 33.63182 | -84.43923 | 1033 ft | 58 kts | 271° |
| 2026-05-05 01:45 | 33.63233 | -84.44184 | 1035 ft | 28 kts | 297° |
| 2026-05-05 01:45 | 33.63266 | -84.44241 | 1035 ft | 0 kts | 314° |
| 2026-05-05 01:45 | 33.63332 | -84.44258 | 1035 ft | 21 kts | 21° |
| 2026-05-05 01:45 | 33.63436 | -84.44196 | 1035 ft | 15 kts | 4° |
| 2026-05-05 01:46 | 33.63543 | -84.44195 | 1037 ft | 17 kts | 359° |
| 2026-05-05 01:46 | 33.63587 | -84.44195 | 1036 ft | 1 kts | 359° |
| 2026-05-05 01:46 | 33.63623 | -84.44192 | 1036 ft | 10 kts | 12° |
| 2026-05-05 01:46 | 33.63687 | -84.44129 | 1036 ft | 10 kts | 36° |
| 2026-05-05 01:47 | 33.63734 | -84.44121 | 1036 ft | 5 kts | 339° |
| 2026-05-05 01:47 | 33.63748 | -84.44162 | 1036 ft | 5 kts | 275° |
| 2026-05-05 01:47 | 33.63749 | -84.44192 | 1036 ft | 0 kts | 270° |